createdAt,value
2019-03-15T00:01:20.315Z,6.52
2019-03-15T00:06:27.211Z,6.33
2019-03-15T00:11:34.125Z,6.37
2019-03-15T00:16:41.040Z,6.28
2019-03-15T00:21:49.717Z,6.19
2019-03-15T00:26:56.684Z,6.06
2019-03-15T00:32:04.732Z,6.13
2019-03-15T00:37:11.817Z,6.31
2019-03-15T00:42:19.754Z,6.36
2019-03-15T00:47:26.669Z,6.08
2019-03-15T00:52:33.569Z,6.04
2019-03-15T00:57:40.517Z,5.97
2019-03-15T01:02:47.858Z,5.92
2019-03-15T01:07:55.834Z,6.06
2019-03-15T01:13:02.757Z,6.09
2019-03-15T01:18:09.673Z,6.31
2019-03-15T01:23:16.763Z,6.30
2019-03-15T01:28:23.729Z,6.23
2019-03-15T01:33:30.899Z,6.22
2019-03-15T01:38:37.980Z,6.21
2019-03-15T01:43:45.975Z,6.17
2019-03-15T01:48:53.161Z,6.19
2019-03-15T01:54:00.090Z,6.21
2019-03-15T01:59:07.027Z,6.18
2019-03-15T02:04:13.927Z,6.28
2019-03-15T02:09:21.983Z,6.31
2019-03-15T02:14:29.282Z,6.43
2019-03-15T02:19:36.262Z,6.42
2019-03-15T02:24:43.191Z,6.42
2019-03-15T02:29:50.181Z,6.43
2019-03-15T02:34:57.081Z,6.24
2019-03-15T02:40:04.099Z,6.25
2019-03-15T02:45:11.205Z,6.30
2019-03-15T02:50:18.390Z,6.32
2019-03-15T02:55:25.321Z,6.34
2019-03-15T03:00:32.239Z,6.46
2019-03-15T03:05:39.226Z,6.50
2019-03-15T03:10:46.248Z,6.49
2019-03-15T03:15:54.444Z,6.52
2019-03-15T03:21:01.354Z,6.52
2019-03-15T03:26:08.376Z,6.45
2019-03-15T03:31:16.238Z,6.37
2019-03-15T03:36:23.323Z,6.31
2019-03-15T03:41:30.591Z,6.26
2019-03-15T03:46:37.574Z,6.21
2019-03-15T03:51:44.496Z,6.15
2019-03-15T03:56:51.489Z,6.16
2019-03-15T04:01:58.704Z,6.08
2019-03-15T04:07:06.570Z,5.99
2019-03-15T04:12:13.494Z,5.85
2019-03-15T04:17:20.546Z,5.90
2019-03-15T04:22:27.536Z,5.93
2019-03-15T04:27:34.529Z,5.92
2019-03-15T04:32:41.516Z,5.93
2019-03-15T04:37:48.829Z,5.86
2019-03-15T04:42:55.903Z,5.92
2019-03-15T04:48:03.094Z,5.93
2019-03-15T04:53:10.012Z,6.04
2019-03-15T04:58:16.991Z,5.86
2019-03-15T05:03:24.049Z,5.86
2019-03-15T05:08:31.019Z,5.90
2019-03-15T05:13:37.946Z,5.93
2019-03-15T05:18:45.098Z,5.91
2019-03-15T05:23:52.018Z,5.87
2019-03-15T05:28:59.335Z,5.79
2019-03-15T05:34:06.313Z,5.74
2019-03-15T05:39:13.232Z,5.67
2019-03-15T05:44:20.198Z,5.60
2019-03-15T05:49:27.145Z,5.40
2019-03-15T05:54:34.363Z,5.43
2019-03-15T05:59:41.331Z,5.44
2019-03-15T06:04:48.954Z,5.38
2019-03-15T06:09:55.907Z,5.47
2019-03-15T06:15:02.820Z,5.74
2019-03-15T06:20:10.027Z,5.83
2019-03-15T06:25:16.959Z,5.95
2019-03-15T06:30:23.942Z,6.05
2019-03-15T06:35:30.875Z,6.10
2019-03-15T06:40:38.177Z,6.30
2019-03-15T06:45:45.415Z,6.54
2019-03-15T06:50:52.356Z,6.71
2019-03-15T06:55:59.300Z,7.01
2019-03-15T07:01:06.274Z,7.36
2019-03-15T07:06:14.371Z,7.54
2019-03-15T07:11:21.425Z,7.55
2019-03-15T07:16:28.358Z,7.51
2019-03-15T07:21:36.807Z,7.49
2019-03-15T07:26:45.400Z,7.46
2019-03-15T07:31:52.411Z,7.55
2019-03-15T07:36:59.340Z,7.49
2019-03-15T07:42:06.991Z,7.56
2019-03-15T07:47:14.067Z,7.48
2019-03-15T07:52:21.010Z,7.58
2019-03-15T07:57:27.987Z,7.59
2019-03-15T08:02:34.937Z,7.47
2019-03-15T08:07:45.316Z,7.48
2019-03-15T08:12:51.617Z,7.62
2019-03-15T08:17:59.529Z,7.63
2019-03-15T08:23:08.611Z,7.62
2019-03-15T08:28:15.113Z,7.61
2019-03-15T08:33:22.108Z,7.73
2019-03-15T08:38:32.151Z,7.83
2019-03-15T08:43:40.800Z,8.06
2019-03-15T08:48:48.155Z,8.02
2019-03-15T08:53:55.228Z,8.03
2019-03-15T08:59:02.151Z,8.13
2019-03-15T09:04:09.094Z,8.26
2019-03-15T09:09:16.096Z,8.42
2019-03-15T09:14:23.311Z,8.45
2019-03-15T09:19:30.310Z,8.59
2019-03-15T09:24:37.229Z,8.73
2019-03-15T09:29:44.531Z,8.66
2019-03-15T09:34:51.639Z,8.76
2019-03-15T09:39:58.785Z,9.02
2019-03-15T09:45:06.218Z,9.31
2019-03-15T09:50:22.831Z,9.21
2019-03-15T09:55:32.179Z,9.56
2019-03-15T10:00:30.632Z,9.45
2019-03-15T10:05:37.748Z,9.55
2019-03-15T10:10:44.663Z,9.39
2019-03-15T10:15:51.700Z,9.42
2019-03-15T10:21:00.228Z,9.09
2019-03-15T10:26:07.150Z,8.78
2019-03-15T10:31:14.189Z,8.86
2019-03-15T10:36:21.170Z,8.62
2019-03-15T10:41:28.154Z,8.83
2019-03-15T10:46:35.076Z,8.69
2019-03-15T10:51:42.017Z,8.64
2019-03-15T10:56:48.999Z,8.50
2019-03-15T11:01:55.980Z,8.42
2019-03-15T11:07:02.918Z,8.51
2019-03-15T11:12:09.886Z,8.47
2019-03-15T11:17:16.805Z,8.60
2019-03-15T11:22:23.902Z,8.48
2019-03-15T11:27:30.800Z,8.63
2019-03-15T11:32:37.849Z,8.55
2019-03-15T11:37:44.806Z,8.62
2019-03-15T11:42:51.723Z,8.75
2019-03-15T11:48:04.106Z,8.77
2019-03-15T11:53:07.367Z,8.77
2019-03-15T11:58:14.292Z,8.57
2019-03-15T12:03:21.202Z,8.75
2019-03-15T12:08:28.143Z,8.77
2019-03-15T12:13:35.079Z,8.75
2019-03-15T12:18:42.156Z,8.70
2019-03-15T12:23:49.092Z,8.74
2019-03-15T12:28:56.116Z,8.67
2019-03-15T12:34:03.537Z,8.73
2019-03-15T12:39:10.486Z,8.83
2019-03-15T12:44:17.467Z,8.87
2019-03-15T12:49:25.688Z,8.97
2019-03-15T12:54:33.945Z,8.77
2019-03-15T12:59:40.865Z,8.66
2019-03-15T13:04:47.782Z,8.78
2019-03-15T13:09:54.795Z,8.92
2019-03-15T13:15:01.768Z,8.84
2019-03-15T13:20:09.933Z,8.78
2019-03-15T13:25:16.853Z,8.69
2019-03-15T13:30:23.770Z,8.74
2019-03-15T13:35:30.920Z,8.75
2019-03-15T13:40:37.913Z,8.73
2019-03-15T13:45:45.394Z,8.89
2019-03-15T13:50:52.343Z,8.86
2019-03-15T13:56:00.333Z,8.94
2019-03-15T14:01:07.199Z,9.04
2019-03-15T14:06:14.204Z,9.10
2019-03-15T14:11:21.113Z,9.19
2019-03-15T14:16:28.102Z,9.30
2019-03-15T14:21:35.494Z,9.50
2019-03-15T14:26:42.405Z,9.62
2019-03-15T14:31:49.601Z,9.83
2019-03-15T14:36:56.786Z,9.86
2019-03-15T14:42:04.100Z,10.14
2019-03-15T14:47:11.229Z,10.39
2019-03-15T14:52:18.438Z,10.49
2019-03-15T14:57:25.367Z,10.86
2019-03-15T15:02:32.286Z,10.85
2019-03-15T15:07:39.300Z,10.69
2019-03-15T15:12:46.391Z,10.56
2019-03-15T15:17:53.295Z,10.58
2019-03-15T15:23:00.499Z,10.57
2019-03-15T15:28:08.420Z,10.59
2019-03-15T15:33:15.347Z,10.51
2019-03-15T15:38:22.274Z,10.69
2019-03-15T15:43:29.344Z,10.63
2019-03-15T15:48:36.296Z,10.67
2019-03-15T15:53:43.228Z,10.58
2019-03-15T15:58:50.180Z,10.56
2019-03-15T16:03:57.250Z,10.53
2019-03-15T16:09:05.625Z,10.50
2019-03-15T16:14:12.544Z,10.41
2019-03-15T16:19:19.524Z,10.35
2019-03-15T16:24:26.480Z,10.23
2019-03-15T16:29:33.466Z,10.15
2019-03-15T16:34:40.517Z,10.16
2019-03-15T16:39:47.521Z,10.17
2019-03-15T16:44:54.463Z,10.25
2019-03-15T16:50:01.393Z,10.32
2019-03-15T16:55:09.446Z,10.47
2019-03-15T17:00:16.710Z,10.39
2019-03-15T17:05:23.705Z,10.14
2019-03-15T17:10:30.623Z,9.28
2019-03-15T17:15:37.691Z,9.15
2019-03-15T17:20:44.615Z,9.05
2019-03-15T17:25:51.522Z,8.73
2019-03-15T17:31:09.257Z,8.64
2019-03-15T17:36:07.539Z,8.52
2019-03-15T17:41:14.448Z,8.49
2019-03-15T17:46:21.386Z,8.44
2019-03-15T17:51:28.383Z,8.47
2019-03-15T17:56:35.494Z,8.55
2019-03-15T18:01:42.570Z,8.65
2019-03-15T18:06:49.581Z,8.67
2019-03-15T18:11:56.481Z,8.70
2019-03-15T18:17:03.394Z,8.65
2019-03-15T18:22:10.355Z,8.86
2019-03-15T18:27:17.290Z,9.10
2019-03-15T18:32:24.373Z,9.33
2019-03-15T18:37:31.299Z,9.31
2019-03-15T18:42:38.405Z,9.43
2019-03-15T18:47:45.406Z,9.57
2019-03-15T18:52:52.395Z,9.82
2019-03-15T18:57:59.314Z,9.80
2019-03-15T19:03:06.234Z,9.62
2019-03-15T19:08:13.285Z,9.53
2019-03-15T19:13:20.310Z,9.49
2019-03-15T19:18:27.266Z,9.52
2019-03-15T19:23:34.269Z,9.67
2019-03-15T19:28:41.179Z,9.49
2019-03-15T19:33:58.278Z,9.48
2019-03-15T19:39:07.290Z,9.32
2019-03-15T19:44:14.194Z,8.99
2019-03-15T19:49:21.275Z,8.84
2019-03-15T19:54:31.678Z,8.87
2019-03-15T19:59:37.085Z,8.78
2019-03-15T20:04:45.079Z,8.62
2019-03-15T20:09:52.001Z,8.45
2019-03-15T20:14:58.907Z,8.50
2019-03-15T20:20:06.571Z,8.63
2019-03-15T20:25:12.933Z,8.45
2019-03-15T20:30:26.006Z,8.39
2019-03-15T20:35:30.978Z,8.49
2019-03-15T20:40:37.886Z,8.47
2019-03-15T20:45:46.018Z,8.51
2019-03-15T20:50:52.947Z,8.32
2019-03-15T20:55:59.931Z,8.23
2019-03-15T21:01:06.842Z,8.22
2019-03-15T21:06:13.837Z,8.13
2019-03-15T21:11:20.825Z,8.12
2019-03-15T21:16:27.733Z,7.98
2019-03-15T21:21:34.658Z,8.08
2019-03-15T21:26:41.761Z,7.83
2019-03-15T21:31:48.883Z,7.82
2019-03-15T21:36:55.864Z,7.91
2019-03-15T21:42:02.785Z,7.85
2019-03-15T21:47:09.793Z,7.80
2019-03-15T21:52:16.725Z,7.57
2019-03-15T21:57:23.736Z,7.56
2019-03-15T22:02:30.702Z,7.72
2019-03-15T22:07:37.688Z,7.71
2019-03-15T22:12:45.685Z,7.77
2019-03-15T22:17:52.894Z,7.50
2019-03-15T22:22:59.959Z,7.48
2019-03-15T22:28:06.864Z,7.37
2019-03-15T22:33:14.054Z,7.40
2019-03-15T22:38:26.132Z,7.38
2019-03-15T22:43:29.824Z,7.43
2019-03-15T22:48:36.725Z,7.50
2019-03-15T22:53:43.661Z,7.38
2019-03-15T22:58:50.598Z,7.27
2019-03-15T23:03:57.765Z,7.18
2019-03-15T23:09:07.269Z,7.15
2019-03-15T23:14:14.347Z,6.80
2019-03-15T23:19:21.268Z,6.56
2019-03-15T23:24:28.236Z,6.66
2019-03-15T23:29:35.222Z,6.41
2019-03-15T23:34:42.533Z,6.41
2019-03-15T23:39:50.627Z,6.59
2019-03-15T23:44:57.558Z,6.79
2019-03-15T23:50:04.897Z,6.91
2019-03-15T23:55:11.858Z,6.86
